sensor_id;sensor_type;location;lat;lon;timestamp;temperature;humidity
15133;DHT22;7667;51.232;17.110;2023-05-29T00:02:01;10.90;99.90
15133;DHT22;7667;51.232;17.110;2023-05-29T00:04:28;10.90;99.90
15133;DHT22;7667;51.232;17.110;2023-05-29T00:06:56;10.90;99.90
15133;DHT22;7667;51.232;17.110;2023-05-29T00:09:24;10.90;99.90
15133;DHT22;7667;51.232;17.110;2023-05-29T00:11:52;10.80;99.90
15133;DHT22;7667;51.232;17.110;2023-05-29T00:14:20;10.80;99.90
15133;DHT22;7667;51.232;17.110;2023-05-29T00:16:50;10.70;99.90
15133;DHT22;7667;51.232;17.110;2023-05-29T00:19:18;10.60;99.90
15133;DHT22;7667;51.232;17.110;2023-05-29T00:21:46;10.50;99.90
15133;DHT22;7667;51.232;17.110;2023-05-29T00:24:15;10.50;99.90
15133;DHT22;7667;51.232;17.110;2023-05-29T00:26:44;10.40;99.90
15133;DHT22;7667;51.232;17.110;2023-05-29T00:29:11;10.40;99.90
15133;DHT22;7667;51.232;17.110;2023-05-29T00:31:39;10.40;99.90
15133;DHT22;7667;51.232;17.110;2023-05-29T00:34:06;10.30;99.90
15133;DHT22;7667;51.232;17.110;2023-05-29T00:36:34;10.20;99.90
15133;DHT22;7667;51.232;17.110;2023-05-29T00:39:02;10.20;99.90
15133;DHT22;7667;51.232;17.110;2023-05-29T00:41:29;10.20;99.90
15133;DHT22;7667;51.232;17.110;2023-05-29T00:43:57;10.20;99.90
15133;DHT22;7667;51.232;17.110;2023-05-29T00:46:25;10.30;99.90
15133;DHT22;7667;51.232;17.110;2023-05-29T00:48:53;10.30;99.90
15133;DHT22;7667;51.232;17.110;2023-05-29T00:51:21;10.30;99.90
15133;DHT22;7667;51.232;17.110;2023-05-29T00:53:50;10.30;99.90
15133;DHT22;7667;51.232;17.110;2023-05-29T00:56:19;10.30;99.90
15133;DHT22;7667;51.232;17.110;2023-05-29T00:58:49;10.30;99.90
15133;DHT22;7667;51.232;17.110;2023-05-29T01:01:19;10.10;99.90
15133;DHT22;7667;51.232;17.110;2023-05-29T01:03:48;10.20;99.90
15133;DHT22;7667;51.232;17.110;2023-05-29T01:06:16;10.10;99.90
15133;DHT22;7667;51.232;17.110;2023-05-29T01:08:44;10.10;99.90
15133;DHT22;7667;51.232;17.110;2023-05-29T01:11:30;10.00;99.90
15133;DHT22;7667;51.232;17.110;2023-05-29T01:14:06;10.00;99.90
15133;DHT22;7667;51.232;17.110;2023-05-29T01:16:55;9.90;99.90
15133;DHT22;7667;51.232;17.110;2023-05-29T01:29:39;9.60;99.90
15133;DHT22;7667;51.232;17.110;2023-05-29T01:32:10;9.50;99.90
15133;DHT22;7667;51.232;17.110;2023-05-29T01:34:38;9.40;99.90
15133;DHT22;7667;51.232;17.110;2023-05-29T01:37:06;9.40;99.90
15133;DHT22;7667;51.232;17.110;2023-05-29T01:39:34;9.30;99.90
15133;DHT22;7667;51.232;17.110;2023-05-29T01:42:02;9.30;99.90
15133;DHT22;7667;51.232;17.110;2023-05-29T01:44:30;9.20;99.90
15133;DHT22;7667;51.232;17.110;2023-05-29T01:46:58;9.20;99.90
15133;DHT22;7667;51.232;17.110;2023-05-29T01:49:26;9.20;99.90
15133;DHT22;7667;51.232;17.110;2023-05-29T01:51:55;9.20;99.90
15133;DHT22;7667;51.232;17.110;2023-05-29T01:54:22;9.20;99.90
15133;DHT22;7667;51.232;17.110;2023-05-29T01:56:51;9.10;99.90
15133;DHT22;7667;51.232;17.110;2023-05-29T01:59:19;9.10;99.90
15133;DHT22;7667;51.232;17.110;2023-05-29T02:01:48;8.80;99.90
15133;DHT22;7667;51.232;17.110;2023-05-29T02:04:15;8.80;99.90
15133;DHT22;7667;51.232;17.110;2023-05-29T02:06:43;8.70;99.90
15133;DHT22;7667;51.232;17.110;2023-05-29T02:09:11;8.80;99.90
15133;DHT22;7667;51.232;17.110;2023-05-29T02:11:38;9.00;99.90
15133;DHT22;7667;51.232;17.110;2023-05-29T02:14:11;9.00;99.90
15133;DHT22;7667;51.232;17.110;2023-05-29T02:16:39;8.90;99.90
15133;DHT22;7667;51.232;17.110;2023-05-29T02:19:08;8.80;99.90
15133;DHT22;7667;51.232;17.110;2023-05-29T02:21:39;8.70;99.90
15133;DHT22;7667;51.232;17.110;2023-05-29T02:24:08;8.70;99.90
15133;DHT22;7667;51.232;17.110;2023-05-29T02:26:35;8.60;99.90
15133;DHT22;7667;51.232;17.110;2023-05-29T02:29:07;8.70;99.90
15133;DHT22;7667;51.232;17.110;2023-05-29T02:31:35;8.60;99.90
15133;DHT22;7667;51.232;17.110;2023-05-29T02:34:02;8.70;99.90
15133;DHT22;7667;51.232;17.110;2023-05-29T02:36:30;8.60;99.90
15133;DHT22;7667;51.232;17.110;2023-05-29T02:38:58;8.50;99.90
15133;DHT22;7667;51.232;17.110;2023-05-29T02:41:25;8.30;99.90
15133;DHT22;7667;51.232;17.110;2023-05-29T02:43:53;8.00;99.90
15133;DHT22;7667;51.232;17.110;2023-05-29T02:46:21;7.90;99.90
15133;DHT22;7667;51.232;17.110;2023-05-29T02:48:49;7.80;99.90
15133;DHT22;7667;51.232;17.110;2023-05-29T02:51:16;7.90;99.90
15133;DHT22;7667;51.232;17.110;2023-05-29T02:53:44;7.90;99.90
15133;DHT22;7667;51.232;17.110;2023-05-29T02:56:12;7.80;99.90
15133;DHT22;7667;51.232;17.110;2023-05-29T02:58:39;7.70;99.90
15133;DHT22;7667;51.232;17.110;2023-05-29T03:01:07;7.70;99.90
15133;DHT22;7667;51.232;17.110;2023-05-29T03:03:35;7.60;99.90
15133;DHT22;7667;51.232;17.110;2023-05-29T03:06:03;7.60;99.90
15133;DHT22;7667;51.232;17.110;2023-05-29T03:08:31;7.60;99.90
15133;DHT22;7667;51.232;17.110;2023-05-29T03:11:00;7.50;99.90
15133;DHT22;7667;51.232;17.110;2023-05-29T03:13:28;7.50;99.90
15133;DHT22;7667;51.232;17.110;2023-05-29T03:15:55;7.50;99.90
15133;DHT22;7667;51.232;17.110;2023-05-29T03:18:24;7.50;99.90
15133;DHT22;7667;51.232;17.110;2023-05-29T03:20:51;7.40;99.90
15133;DHT22;7667;51.232;17.110;2023-05-29T03:23:19;7.50;99.90
15133;DHT22;7667;51.232;17.110;2023-05-29T03:25:47;7.50;99.90
15133;DHT22;7667;51.232;17.110;2023-05-29T03:28:15;7.50;99.90
15133;DHT22;7667;51.232;17.110;2023-05-29T03:30:42;7.60;99.90
15133;DHT22;7667;51.232;17.110;2023-05-29T03:33:10;7.60;99.90
15133;DHT22;7667;51.232;17.110;2023-05-29T03:35:37;7.60;99.90
15133;DHT22;7667;51.232;17.110;2023-05-29T03:38:05;7.70;99.90
15133;DHT22;7667;51.232;17.110;2023-05-29T03:40:32;7.80;99.90
15133;DHT22;7667;51.232;17.110;2023-05-29T03:43:00;7.90;99.90
15133;DHT22;7667;51.232;17.110;2023-05-29T03:45:27;7.90;99.90
15133;DHT22;7667;51.232;17.110;2023-05-29T03:47:55;8.00;99.90
15133;DHT22;7667;51.232;17.110;2023-05-29T03:50:22;8.10;99.90
15133;DHT22;7667;51.232;17.110;2023-05-29T03:52:50;8.20;99.90
15133;DHT22;7667;51.232;17.110;2023-05-29T03:55:17;8.30;99.90
15133;DHT22;7667;51.232;17.110;2023-05-29T03:57:45;8.50;99.90
15133;DHT22;7667;51.232;17.110;2023-05-29T04:00:13;8.70;99.90
15133;DHT22;7667;51.232;17.110;2023-05-29T04:02:41;8.90;99.90
15133;DHT22;7667;51.232;17.110;2023-05-29T04:05:09;9.00;99.90
15133;DHT22;7667;51.232;17.110;2023-05-29T04:07:36;9.20;99.90
15133;DHT22;7667;51.232;17.110;2023-05-29T04:10:05;9.20;99.90
15133;DHT22;7667;51.232;17.110;2023-05-29T04:12:33;9.30;99.90
15133;DHT22;7667;51.232;17.110;2023-05-29T04:15:02;9.40;99.90
15133;DHT22;7667;51.232;17.110;2023-05-29T04:17:30;9.60;99.90
15133;DHT22;7667;51.232;17.110;2023-05-29T04:19:57;9.70;99.90
15133;DHT22;7667;51.232;17.110;2023-05-29T04:22:25;10.00;99.90
15133;DHT22;7667;51.232;17.110;2023-05-29T04:24:53;10.20;99.90
15133;DHT22;7667;51.232;17.110;2023-05-29T04:27:20;10.50;99.90
15133;DHT22;7667;51.232;17.110;2023-05-29T04:29:48;10.80;99.90
15133;DHT22;7667;51.232;17.110;2023-05-29T04:32:15;11.00;99.90
15133;DHT22;7667;51.232;17.110;2023-05-29T04:34:44;11.10;99.90
15133;DHT22;7667;51.232;17.110;2023-05-29T04:37:11;11.30;99.90
15133;DHT22;7667;51.232;17.110;2023-05-29T04:39:40;11.40;99.90
15133;DHT22;7667;51.232;17.110;2023-05-29T04:42:08;11.60;99.90
15133;DHT22;7667;51.232;17.110;2023-05-29T04:44:35;11.70;99.90
15133;DHT22;7667;51.232;17.110;2023-05-29T04:47:03;11.70;99.90
15133;DHT22;7667;51.232;17.110;2023-05-29T04:49:31;11.80;99.90
15133;DHT22;7667;51.232;17.110;2023-05-29T04:51:58;11.90;99.90
15133;DHT22;7667;51.232;17.110;2023-05-29T04:54:27;12.00;99.90
15133;DHT22;7667;51.232;17.110;2023-05-29T04:56:55;12.00;99.90
15133;DHT22;7667;51.232;17.110;2023-05-29T04:59:22;12.10;99.90
15133;DHT22;7667;51.232;17.110;2023-05-29T05:01:50;12.20;99.90
15133;DHT22;7667;51.232;17.110;2023-05-29T05:04:18;12.40;99.90
15133;DHT22;7667;51.232;17.110;2023-05-29T05:06:46;12.50;99.90
15133;DHT22;7667;51.232;17.110;2023-05-29T05:09:13;12.70;99.90
15133;DHT22;7667;51.232;17.110;2023-05-29T05:11:41;12.80;99.90
15133;DHT22;7667;51.232;17.110;2023-05-29T05:14:08;12.90;99.90
15133;DHT22;7667;51.232;17.110;2023-05-29T05:16:36;13.10;99.90
15133;DHT22;7667;51.232;17.110;2023-05-29T05:19:04;13.20;99.90
15133;DHT22;7667;51.232;17.110;2023-05-29T05:21:32;13.30;99.90
15133;DHT22;7667;51.232;17.110;2023-05-29T05:24:00;13.30;99.90
15133;DHT22;7667;51.232;17.110;2023-05-29T05:26:27;13.30;99.90
15133;DHT22;7667;51.232;17.110;2023-05-29T05:28:55;13.30;99.90
15133;DHT22;7667;51.232;17.110;2023-05-29T05:31:24;13.40;99.90
15133;DHT22;7667;51.232;17.110;2023-05-29T05:33:52;13.50;99.90
15133;DHT22;7667;51.232;17.110;2023-05-29T05:36:19;13.50;99.90
15133;DHT22;7667;51.232;17.110;2023-05-29T05:38:47;13.60;99.90
15133;DHT22;7667;51.232;17.110;2023-05-29T05:41:15;13.70;99.90
15133;DHT22;7667;51.232;17.110;2023-05-29T05:43:43;13.80;99.90
15133;DHT22;7667;51.232;17.110;2023-05-29T05:46:10;13.90;99.90
15133;DHT22;7667;51.232;17.110;2023-05-29T05:48:39;14.00;99.90
15133;DHT22;7667;51.232;17.110;2023-05-29T05:51:08;14.10;99.90
15133;DHT22;7667;51.232;17.110;2023-05-29T05:53:35;14.20;99.90
15133;DHT22;7667;51.232;17.110;2023-05-29T05:56:03;14.30;99.90
15133;DHT22;7667;51.232;17.110;2023-05-29T05:58:31;14.30;99.90
15133;DHT22;7667;51.232;17.110;2023-05-29T06:00:59;14.40;99.90
15133;DHT22;7667;51.232;17.110;2023-05-29T06:03:28;14.50;99.90
15133;DHT22;7667;51.232;17.110;2023-05-29T06:05:56;14.70;99.90
15133;DHT22;7667;51.232;17.110;2023-05-29T06:08:23;14.80;99.90
15133;DHT22;7667;51.232;17.110;2023-05-29T06:10:51;14.90;99.90
15133;DHT22;7667;51.232;17.110;2023-05-29T06:13:19;15.10;99.90
15133;DHT22;7667;51.232;17.110;2023-05-29T06:15:47;15.20;99.90
15133;DHT22;7667;51.232;17.110;2023-05-29T06:18:15;15.40;99.90
15133;DHT22;7667;51.232;17.110;2023-05-29T06:20:43;15.50;99.90
15133;DHT22;7667;51.232;17.110;2023-05-29T06:23:11;15.60;99.90
15133;DHT22;7667;51.232;17.110;2023-05-29T06:25:39;15.70;99.90
15133;DHT22;7667;51.232;17.110;2023-05-29T06:28:06;15.90;99.90
15133;DHT22;7667;51.232;17.110;2023-05-29T06:30:34;16.00;99.90
15133;DHT22;7667;51.232;17.110;2023-05-29T06:33:01;16.10;99.90
15133;DHT22;7667;51.232;17.110;2023-05-29T06:35:29;16.20;99.90
15133;DHT22;7667;51.232;17.110;2023-05-29T06:37:57;16.40;99.90
15133;DHT22;7667;51.232;17.110;2023-05-29T06:40:24;16.50;99.90
15133;DHT22;7667;51.232;17.110;2023-05-29T06:42:52;16.60;99.90
15133;DHT22;7667;51.232;17.110;2023-05-29T06:45:20;16.70;99.90
15133;DHT22;7667;51.232;17.110;2023-05-29T06:47:47;16.80;99.90
15133;DHT22;7667;51.232;17.110;2023-05-29T06:50:15;16.90;99.90
15133;DHT22;7667;51.232;17.110;2023-05-29T06:52:43;17.10;99.90
15133;DHT22;7667;51.232;17.110;2023-05-29T06:55:10;17.20;99.90
15133;DHT22;7667;51.232;17.110;2023-05-29T06:57:38;17.20;99.90
15133;DHT22;7667;51.232;17.110;2023-05-29T07:00:06;17.30;99.90
15133;DHT22;7667;51.232;17.110;2023-05-29T07:02:34;17.40;99.90
15133;DHT22;7667;51.232;17.110;2023-05-29T07:05:02;17.60;99.90
15133;DHT22;7667;51.232;17.110;2023-05-29T07:07:31;17.80;99.90
15133;DHT22;7667;51.232;17.110;2023-05-29T07:09:58;17.90;99.90
15133;DHT22;7667;51.232;17.110;2023-05-29T07:12:26;18.10;99.90
15133;DHT22;7667;51.232;17.110;2023-05-29T07:14:54;18.20;99.90
15133;DHT22;7667;51.232;17.110;2023-05-29T07:17:21;18.20;99.90
15133;DHT22;7667;51.232;17.110;2023-05-29T07:19:49;18.30;96.40
15133;DHT22;7667;51.232;17.110;2023-05-29T07:22:17;18.40;95.00
15133;DHT22;7667;51.232;17.110;2023-05-29T07:24:45;18.50;95.30
15133;DHT22;7667;51.232;17.110;2023-05-29T07:27:13;18.60;96.40
15133;DHT22;7667;51.232;17.110;2023-05-29T07:29:40;18.60;94.80
15133;DHT22;7667;51.232;17.110;2023-05-29T07:32:09;18.60;93.70
15133;DHT22;7667;51.232;17.110;2023-05-29T07:34:38;18.80;94.30
15133;DHT22;7667;51.232;17.110;2023-05-29T07:37:06;18.90;92.60
15133;DHT22;7667;51.232;17.110;2023-05-29T07:39:35;19.00;87.40
15133;DHT22;7667;51.232;17.110;2023-05-29T07:42:03;19.10;85.10
15133;DHT22;7667;51.232;17.110;2023-05-29T07:44:31;19.10;88.30
15133;DHT22;7667;51.232;17.110;2023-05-29T07:46:59;19.20;83.70
15133;DHT22;7667;51.232;17.110;2023-05-29T07:49:27;19.30;76.90
15133;DHT22;7667;51.232;17.110;2023-05-29T07:51:55;19.30;78.70
15133;DHT22;7667;51.232;17.110;2023-05-29T07:54:22;19.30;78.40
15133;DHT22;7667;51.232;17.110;2023-05-29T07:56:50;19.30;82.80
15133;DHT22;7667;51.232;17.110;2023-05-29T07:59:18;19.30;85.80
15133;DHT22;7667;51.232;17.110;2023-05-29T08:01:46;19.40;84.80
15133;DHT22;7667;51.232;17.110;2023-05-29T08:04:14;19.50;79.40
15133;DHT22;7667;51.232;17.110;2023-05-29T08:06:42;19.50;78.20
15133;DHT22;7667;51.232;17.110;2023-05-29T08:09:10;19.40;78.10
15133;DHT22;7667;51.232;17.110;2023-05-29T08:11:38;19.50;71.20
15133;DHT22;7667;51.232;17.110;2023-05-29T08:14:06;19.40;77.10
15133;DHT22;7667;51.232;17.110;2023-05-29T08:16:34;19.50;75.20
15133;DHT22;7667;51.232;17.110;2023-05-29T08:19:02;19.60;70.40
15133;DHT22;7667;51.232;17.110;2023-05-29T08:21:31;19.50;69.20
15133;DHT22;7667;51.232;17.110;2023-05-29T08:24:02;19.60;72.40
15133;DHT22;7667;51.232;17.110;2023-05-29T08:26:32;19.70;73.40
15133;DHT22;7667;51.232;17.110;2023-05-29T08:29:00;19.60;71.40
15133;DHT22;7667;51.232;17.110;2023-05-29T08:31:29;19.80;73.00
15133;DHT22;7667;51.232;17.110;2023-05-29T08:33:58;19.80;70.50
15133;DHT22;7667;51.232;17.110;2023-05-29T08:36:25;19.90;72.60
15133;DHT22;7667;51.232;17.110;2023-05-29T08:38:53;20.00;72.60
15133;DHT22;7667;51.232;17.110;2023-05-29T08:41:27;20.00;74.90
15133;DHT22;7667;51.232;17.110;2023-05-29T08:44:00;20.20;74.10
15133;DHT22;7667;51.232;17.110;2023-05-29T08:46:33;20.10;74.20
15133;DHT22;7667;51.232;17.110;2023-05-29T08:49:02;20.10;73.50
15133;DHT22;7667;51.232;17.110;2023-05-29T08:51:32;20.30;73.20
15133;DHT22;7667;51.232;17.110;2023-05-29T08:54:03;20.30;71.70
15133;DHT22;7667;51.232;17.110;2023-05-29T08:56:31;20.30;71.80
15133;DHT22;7667;51.232;17.110;2023-05-29T08:59:02;20.20;73.40
15133;DHT22;7667;51.232;17.110;2023-05-29T09:01:50;20.20;73.50
15133;DHT22;7667;51.232;17.110;2023-05-29T09:04:18;20.20;71.70
15133;DHT22;7667;51.232;17.110;2023-05-29T09:06:46;20.30;72.50
15133;DHT22;7667;51.232;17.110;2023-05-29T09:09:14;20.30;72.50
15133;DHT22;7667;51.232;17.110;2023-05-29T09:11:43;20.20;73.30
15133;DHT22;7667;51.232;17.110;2023-05-29T09:14:41;20.20;72.90
15133;DHT22;7667;51.232;17.110;2023-05-29T09:17:11;20.30;74.00
15133;DHT22;7667;51.232;17.110;2023-05-29T09:19:40;20.50;77.00
15133;DHT22;7667;51.232;17.110;2023-05-29T09:22:12;21.10;77.90
15133;DHT22;7667;51.232;17.110;2023-05-29T09:24:47;21.30;76.60
15133;DHT22;7667;51.232;17.110;2023-05-29T09:27:15;21.40;72.30
15133;DHT22;7667;51.232;17.110;2023-05-29T09:29:45;21.20;69.90
15133;DHT22;7667;51.232;17.110;2023-05-29T09:32:18;21.10;72.00
15133;DHT22;7667;51.232;17.110;2023-05-29T09:34:46;21.00;72.10
15133;DHT22;7667;51.232;17.110;2023-05-29T09:37:13;20.80;68.90
15133;DHT22;7667;51.232;17.110;2023-05-29T09:39:45;20.90;75.10
15133;DHT22;7667;51.232;17.110;2023-05-29T09:42:16;21.20;71.00
15133;DHT22;7667;51.232;17.110;2023-05-29T09:44:50;21.30;70.80
15133;DHT22;7667;51.232;17.110;2023-05-29T09:47:19;21.40;71.80
15133;DHT22;7667;51.232;17.110;2023-05-29T09:49:47;21.20;69.00
15133;DHT22;7667;51.232;17.110;2023-05-29T09:52:15;21.00;69.70
15133;DHT22;7667;51.232;17.110;2023-05-29T09:54:48;21.00;69.10
15133;DHT22;7667;51.232;17.110;2023-05-29T09:57:18;21.10;68.70
15133;DHT22;7667;51.232;17.110;2023-05-29T09:59:46;21.40;68.90
15133;DHT22;7667;51.232;17.110;2023-05-29T10:02:18;21.40;69.60
15133;DHT22;7667;51.232;17.110;2023-05-29T10:04:48;21.60;69.00
15133;DHT22;7667;51.232;17.110;2023-05-29T10:07:32;21.50;68.40
15133;DHT22;7667;51.232;17.110;2023-05-29T10:10:04;21.70;65.50
15133;DHT22;7667;51.232;17.110;2023-05-29T10:12:37;21.80;63.30
15133;DHT22;7667;51.232;17.110;2023-05-29T10:15:12;21.70;63.30
15133;DHT22;7667;51.232;17.110;2023-05-29T10:17:52;21.80;65.80
15133;DHT22;7667;51.232;17.110;2023-05-29T10:20:23;21.90;63.70
15133;DHT22;7667;51.232;17.110;2023-05-29T10:22:55;21.80;64.70
15133;DHT22;7667;51.232;17.110;2023-05-29T10:25:24;22.00;67.10
15133;DHT22;7667;51.232;17.110;2023-05-29T10:27:56;22.20;64.10
15133;DHT22;7667;51.232;17.110;2023-05-29T10:36:22;22.90;59.20
15133;DHT22;7667;51.232;17.110;2023-05-29T10:38:53;22.60;61.00
15133;DHT22;7667;51.232;17.110;2023-05-29T10:44:02;23.00;61.90
15133;DHT22;7667;51.232;17.110;2023-05-29T10:49:17;23.50;59.60
15133;DHT22;7667;51.232;17.110;2023-05-29T10:51:46;23.80;58.40
15133;DHT22;7667;51.232;17.110;2023-05-29T10:54:25;24.00;58.50
15133;DHT22;7667;51.232;17.110;2023-05-29T10:56:57;23.70;59.60
15133;DHT22;7667;51.232;17.110;2023-05-29T10:59:28;24.20;58.90
15133;DHT22;7667;51.232;17.110;2023-05-29T11:01:57;25.40;56.70
15133;DHT22;7667;51.232;17.110;2023-05-29T11:04:26;26.20;59.30
15133;DHT22;7667;51.232;17.110;2023-05-29T11:06:54;26.70;53.90
15133;DHT22;7667;51.232;17.110;2023-05-29T11:09:37;26.20;55.40
15133;DHT22;7667;51.232;17.110;2023-05-29T11:17:43;25.10;54.20
15133;DHT22;7667;51.232;17.110;2023-05-29T11:23:07;25.20;53.90
15133;DHT22;7667;51.232;17.110;2023-05-29T11:25:36;24.90;54.80
15133;DHT22;7667;51.232;17.110;2023-05-29T11:28:05;25.70;54.50
15133;DHT22;7667;51.232;17.110;2023-05-29T11:30:56;26.60;52.10
15133;DHT22;7667;51.232;17.110;2023-05-29T11:33:27;25.70;53.70
15133;DHT22;7667;51.232;17.110;2023-05-29T11:36:00;25.60;53.40
15133;DHT22;7667;51.232;17.110;2023-05-29T11:38:28;26.40;53.00
15133;DHT22;7667;51.232;17.110;2023-05-29T11:40:57;27.10;52.40
15133;DHT22;7667;51.232;17.110;2023-05-29T11:43:27;27.70;51.90
15133;DHT22;7667;51.232;17.110;2023-05-29T11:45:55;27.30;51.90
15133;DHT22;7667;51.232;17.110;2023-05-29T11:48:26;27.00;51.50
15133;DHT22;7667;51.232;17.110;2023-05-29T11:50:54;26.90;51.80
15133;DHT22;7667;51.232;17.110;2023-05-29T11:53:22;26.20;50.50
15133;DHT22;7667;51.232;17.110;2023-05-29T11:55:50;26.20;52.60
15133;DHT22;7667;51.232;17.110;2023-05-29T11:58:20;26.70;51.60
15133;DHT22;7667;51.232;17.110;2023-05-29T12:00:48;27.40;50.20
15133;DHT22;7667;51.232;17.110;2023-05-29T12:03:18;27.40;49.90
15133;DHT22;7667;51.232;17.110;2023-05-29T12:05:48;27.10;51.70
15133;DHT22;7667;51.232;17.110;2023-05-29T12:08:24;27.50;50.00
15133;DHT22;7667;51.232;17.110;2023-05-29T12:10:53;28.50;49.90
15133;DHT22;7667;51.232;17.110;2023-05-29T12:13:20;28.30;47.80
15133;DHT22;7667;51.232;17.110;2023-05-29T12:15:54;27.40;48.60
15133;DHT22;7667;51.232;17.110;2023-05-29T12:18:24;27.30;49.70
15133;DHT22;7667;51.232;17.110;2023-05-29T12:21:02;27.70;51.00
15133;DHT22;7667;51.232;17.110;2023-05-29T12:23:31;27.30;49.60
15133;DHT22;7667;51.232;17.110;2023-05-29T12:25:59;27.80;50.00
15133;DHT22;7667;51.232;17.110;2023-05-29T12:28:27;27.30;49.00
15133;DHT22;7667;51.232;17.110;2023-05-29T12:30:58;28.10;48.80
15133;DHT22;7667;51.232;17.110;2023-05-29T12:33:32;28.90;47.50
15133;DHT22;7667;51.232;17.110;2023-05-29T12:36:03;29.00;48.80
15133;DHT22;7667;51.232;17.110;2023-05-29T12:38:54;27.60;47.90
15133;DHT22;7667;51.232;17.110;2023-05-29T12:41:29;27.10;49.50
15133;DHT22;7667;51.232;17.110;2023-05-29T12:44:04;27.70;49.40
15133;DHT22;7667;51.232;17.110;2023-05-29T12:46:40;27.30;47.80
15133;DHT22;7667;51.232;17.110;2023-05-29T12:49:16;27.80;49.90
15133;DHT22;7667;51.232;17.110;2023-05-29T12:51:46;28.90;49.40
15133;DHT22;7667;51.232;17.110;2023-05-29T12:54:16;29.40;46.40
15133;DHT22;7667;51.232;17.110;2023-05-29T12:56:44;28.30;49.20
15133;DHT22;7667;51.232;17.110;2023-05-29T12:59:13;27.80;50.70
15133;DHT22;7667;51.232;17.110;2023-05-29T13:01:42;27.80;48.90
15133;DHT22;7667;51.232;17.110;2023-05-29T13:04:10;27.70;48.50
15133;DHT22;7667;51.232;17.110;2023-05-29T13:06:40;27.50;46.70
15133;DHT22;7667;51.232;17.110;2023-05-29T13:09:07;28.00;47.10
15133;DHT22;7667;51.232;17.110;2023-05-29T13:11:35;27.70;47.50
15133;DHT22;7667;51.232;17.110;2023-05-29T13:14:04;26.50;47.90
15133;DHT22;7667;51.232;17.110;2023-05-29T13:16:32;26.00;48.60
15133;DHT22;7667;51.232;17.110;2023-05-29T13:19:00;26.70;48.80
15133;DHT22;7667;51.232;17.110;2023-05-29T13:21:28;26.80;49.00
15133;DHT22;7667;51.232;17.110;2023-05-29T13:23:55;26.50;49.20
15133;DHT22;7667;51.232;17.110;2023-05-29T13:26:23;26.80;48.70
15133;DHT22;7667;51.232;17.110;2023-05-29T13:28:51;27.90;47.90
15133;DHT22;7667;51.232;17.110;2023-05-29T13:31:18;28.80;45.60
15133;DHT22;7667;51.232;17.110;2023-05-29T13:33:48;28.20;46.40
15133;DHT22;7667;51.232;17.110;2023-05-29T13:36:15;27.90;46.20
15133;DHT22;7667;51.232;17.110;2023-05-29T13:38:43;29.50;48.30
15133;DHT22;7667;51.232;17.110;2023-05-29T13:41:11;30.10;44.00
15133;DHT22;7667;51.232;17.110;2023-05-29T13:43:39;27.50;44.70
15133;DHT22;7667;51.232;17.110;2023-05-29T13:46:12;27.20;47.00
15133;DHT22;7667;51.232;17.110;2023-05-29T13:48:39;27.90;44.70
15133;DHT22;7667;51.232;17.110;2023-05-29T13:51:07;29.60;44.30
15133;DHT22;7667;51.232;17.110;2023-05-29T13:53:35;29.70;44.30
15133;DHT22;7667;51.232;17.110;2023-05-29T13:56:02;27.40;45.00
15133;DHT22;7667;51.232;17.110;2023-05-29T13:58:30;27.10;46.10
15133;DHT22;7667;51.232;17.110;2023-05-29T14:00:57;27.00;46.10
15133;DHT22;7667;51.232;17.110;2023-05-29T14:03:25;28.10;44.70
15133;DHT22;7667;51.232;17.110;2023-05-29T14:05:56;28.90;43.80
15133;DHT22;7667;51.232;17.110;2023-05-29T14:08:24;30.10;44.90
15133;DHT22;7667;51.232;17.110;2023-05-29T14:10:52;29.50;46.90
15133;DHT22;7667;51.232;17.110;2023-05-29T14:13:19;27.10;48.30
15133;DHT22;7667;51.232;17.110;2023-05-29T14:15:47;26.00;50.70
15133;DHT22;7667;51.232;17.110;2023-05-29T14:18:16;25.60;50.70
15133;DHT22;7667;51.232;17.110;2023-05-29T14:20:44;25.20;50.60
15133;DHT22;7667;51.232;17.110;2023-05-29T14:23:17;25.60;51.20
15133;DHT22;7667;51.232;17.110;2023-05-29T14:25:45;26.80;49.00
15133;DHT22;7667;51.232;17.110;2023-05-29T14:28:12;27.30;48.40
15133;DHT22;7667;51.232;17.110;2023-05-29T14:30:40;26.70;47.80
15133;DHT22;7667;51.232;17.110;2023-05-29T14:33:08;27.70;48.90
15133;DHT22;7667;51.232;17.110;2023-05-29T14:35:35;28.80;46.20
15133;DHT22;7667;51.232;17.110;2023-05-29T14:38:03;27.10;48.10
15133;DHT22;7667;51.232;17.110;2023-05-29T14:40:32;25.60;51.00
15133;DHT22;7667;51.232;17.110;2023-05-29T14:43:01;24.70;51.30
15133;DHT22;7667;51.232;17.110;2023-05-29T14:45:28;24.40;52.30
15133;DHT22;7667;51.232;17.110;2023-05-29T14:47:57;24.10;54.20
15133;DHT22;7667;51.232;17.110;2023-05-29T14:50:24;24.20;55.30
15133;DHT22;7667;51.232;17.110;2023-05-29T14:52:52;24.20;53.60
15133;DHT22;7667;51.232;17.110;2023-05-29T14:55:20;25.20;53.40
15133;DHT22;7667;51.232;17.110;2023-05-29T14:57:47;26.70;49.30
15133;DHT22;7667;51.232;17.110;2023-05-29T15:00:15;27.70;48.00
15133;DHT22;7667;51.232;17.110;2023-05-29T15:02:46;28.50;45.70
15133;DHT22;7667;51.232;17.110;2023-05-29T15:05:13;28.60;45.90
15133;DHT22;7667;51.232;17.110;2023-05-29T15:07:41;28.60;45.90
15133;DHT22;7667;51.232;17.110;2023-05-29T15:10:09;29.30;45.80
15133;DHT22;7667;51.232;17.110;2023-05-29T15:12:37;29.60;45.70
15133;DHT22;7667;51.232;17.110;2023-05-29T15:15:05;29.50;46.00
15133;DHT22;7667;51.232;17.110;2023-05-29T15:17:33;28.70;46.80
15133;DHT22;7667;51.232;17.110;2023-05-29T15:20:00;28.10;48.60
15133;DHT22;7667;51.232;17.110;2023-05-29T15:22:29;27.10;49.60
15133;DHT22;7667;51.232;17.110;2023-05-29T15:24:57;26.10;51.30
15133;DHT22;7667;51.232;17.110;2023-05-29T15:27:24;25.20;53.50
15133;DHT22;7667;51.232;17.110;2023-05-29T15:30:11;24.90;54.20
15133;DHT22;7667;51.232;17.110;2023-05-29T15:32:40;25.60;53.70
15133;DHT22;7667;51.232;17.110;2023-05-29T15:35:10;25.90;53.10
15133;DHT22;7667;51.232;17.110;2023-05-29T15:37:38;26.10;52.80
15133;DHT22;7667;51.232;17.110;2023-05-29T15:40:07;26.00;53.00
15133;DHT22;7667;51.232;17.110;2023-05-29T15:42:38;26.60;52.50
15133;DHT22;7667;51.232;17.110;2023-05-29T15:45:08;27.10;52.60
15133;DHT22;7667;51.232;17.110;2023-05-29T15:47:36;26.90;54.10
15133;DHT22;7667;51.232;17.110;2023-05-29T15:50:04;26.30;54.30
15133;DHT22;7667;51.232;17.110;2023-05-29T15:52:32;25.80;55.00
15133;DHT22;7667;51.232;17.110;2023-05-29T15:55:20;26.00;53.30
15133;DHT22;7667;51.232;17.110;2023-05-29T15:57:48;26.40;53.40
15133;DHT22;7667;51.232;17.110;2023-05-29T16:00:16;26.30;53.80
15133;DHT22;7667;51.232;17.110;2023-05-29T16:02:44;25.50;53.90
15133;DHT22;7667;51.232;17.110;2023-05-29T16:05:12;25.00;55.60
15133;DHT22;7667;51.232;17.110;2023-05-29T16:07:39;24.60;55.60
15133;DHT22;7667;51.232;17.110;2023-05-29T16:10:08;24.20;56.60
15133;DHT22;7667;51.232;17.110;2023-05-29T16:12:37;24.40;57.50
15133;DHT22;7667;51.232;17.110;2023-05-29T16:15:05;24.10;57.50